Flight Track Log - Related Links

Times and Time Zones

All times are in EDT time to prevent confusion due to time zone crossing. See the FLG3428 flight status page for this flight to view local times or setup timezone preferences in your user account.

Time Position Orientation Groundspeed Altitude Reporting Facility
EDT Latitude Longitude Course Direction KTS MPH feet Rate Location/Type
Tue 09:34:19 AM 39.0333 -84.6667 270° West 160 184 1,300  Level Cincinnati TRACON
Tue 09:35:31 AM 39.0333 -84.7333 253° West 233 268 2,600 1,619 Climbing Cincinnati TRACON
Tue 09:36:25 AM 39.0500 -84.8167 284° West 266 306 4,700 2,333 Climbing Cincinnati TRACON
Tue 09:37:19 AM 39.0792 -84.8961 295° West 264 304 6,800 2,103 Climbing Indianapolis Center
Tue 09:38:22 AM 39.1042 -84.9900 289° West 273 314 8,800 1,597 Climbing Indianapolis Center
Tue 09:39:23 AM 39.1286 -85.0911 287° West 290 334 10,100 1,268 Climbing Indianapolis Center
Tue 09:40:25 AM 39.1594 -85.2081 289° West 335 386 11,400 1,344 Climbing Indianapolis Center
Tue 09:41:28 AM 39.1919 -85.3267 290° West 348 400 12,900 1,392 Climbing Indianapolis Center
Tue 09:42:30 AM 39.2344 -85.4408 296° West 354 407 14,300 1,403 Climbing Indianapolis Center
Tue 09:43:32 AM 39.3111 -85.5619 309° West 363 418 15,800 1,355 Climbing Indianapolis Center
Tue 09:44:34 AM 39.3761 -85.6644 309° West 364 419 17,100 1,065 Climbing Indianapolis Center
Tue 09:45:36 AM 39.4417 -85.7697 309° West 371 427 18,000 774 Climbing Indianapolis Center
Tue 09:46:38 AM 39.5081 -85.8750 309° West 374 430 18,700 823 Climbing Indianapolis Center
Tue 09:47:40 AM 39.5311 -86.0083 283° West 394 453 19,700 726 Climbing Indianapolis Center
Tue 09:48:42 AM 39.5272 -86.1536 268° West 396 456 20,200 484 Climbing Indianapolis Center
Tue 09:49:44 AM 39.5219 -86.3344 268° West 409 471 20,700 484 Climbing Indianapolis Center
Tue 09:50:46 AM 39.5167 -86.4878 267° West 417 480 21,200 726 Climbing Indianapolis Center
Tue 09:51:48 AM 39.5125 -86.6383 268° West 417 480 22,200 823 Climbing Indianapolis Center
Tue 09:52:50 AM 39.5222 -86.7853 275° West 415 478 22,900 576 Climbing Indianapolis Center
Tue 09:53:53 AM 39.5397 -86.9328 279° West 413 475 23,400 480 Climbing Indianapolis Center
Tue 09:54:55 AM 39.5575 -87.0806 279° West 413 475 23,900 484 Climbing Indianapolis Center
Tue 09:55:57 AM 39.5753 -87.2303 279° West 415 478 24,400 532 Climbing Indianapolis Center
Tue 09:56:59 AM 39.5969 -87.4100 279° West 418 481 25,000 532 Climbing Indianapolis Center
Tue 09:58:01 AM 39.6136 -87.5603 278° West 419 482 25,500 484 Climbing Indianapolis Center
Tue 09:59:03 AM 39.6319 -87.7117 279° West 423 487 26,000 242 Climbing Indianapolis Center
Tue 10:00:05 AM 39.6483 -87.8642 278° West 425 489 26,000  Level Indianapolis Center
Tue 10:01:07 AM 39.6661 -88.0225 278° West 436 502 26,000  Level Indianapolis Center
Tue 10:02:00 AM 39.6828 -88.1672 279° West 440 506 26,000  Level Kansas City Center
Tue 10:03:04 AM 39.7006 -88.3242 278° West 447 514 26,000  Level Kansas City Center
Tue 10:04:05 AM 39.7178 -88.4814 278° West 447 514 26,000  Level Kansas City Center
Tue 10:05:09 AM 39.7375 -88.6725 278° West 446 513 26,000  Level Kansas City Center
Tue 10:06:10 AM 39.7533 -88.8306 277° West 445 512 26,000  Level Kansas City Center
Tue 10:07:11 AM 39.7697 -88.9892 278° West 444 511 26,000  Level Kansas City Center
Tue 10:08:15 AM 39.7869 -89.1483 278° West 444 511 26,000  Level Kansas City Center
Tue 10:09:15 AM 39.8033 -89.3097 278° West 444 511 26,000  Level Kansas City Center
Tue 10:10:19 AM 39.8194 -89.4733 277° West 450 518 26,000  Level Kansas City Center
Tue 10:11:19 AM 39.8133 -89.6378 267° West 459 528 26,000  Level Kansas City Center
Tue 10:12:23 AM 39.8047 -89.8369 267° West 459 528 26,000  Level Kansas City Center
Tue 10:13:24 AM 39.7975 -90.0031 267° West 459 528 26,000  Level Kansas City Center
Tue 10:14:27 AM 39.7897 -90.1683 267° West 459 528 26,000  Level Kansas City Center
Tue 10:15:28 AM 39.7811 -90.3342 266° West 459 528 26,000  Level Kansas City Center
Tue 10:16:31 AM 39.7736 -90.4997 267° West 458 527 26,000 -242 Level Kansas City Center
Tue 10:17:32 AM 39.7644 -90.6647 266° West 458 527 25,500 -968 Descending Kansas City Center
Tue 10:18:35 AM 39.7539 -90.8606 266° West 457 526 24,000 -1,306 Descending Kansas City Center
Tue 10:19:36 AM 39.7475 -90.9972 267° West 449 517 22,800 -968 Descending Kansas City Center
Tue 10:20:39 AM 39.7367 -91.1808 266° West 436 502 22,000 -387 Descending Kansas City Center
Tue 10:21:40 AM 39.7297 -91.3339 267° West 430 495 22,000  Level Kansas City Center
Tue 10:22:44 AM 39.7258 -91.4992 268° West 431 496 22,000  Level Kansas City Center
Tue 10:23:44 AM 39.7203 -91.6567 267° West 436 502 22,000  Level Kansas City Center
Tue 10:24:48 AM 39.7158 -91.8144 268° West 436 502 22,000  Level Kansas City Center
Tue 10:25:49 AM 39.7106 -91.9706 268° West 436 502 22,000  Level Kansas City Center
Tue 10:26:53 AM 39.7056 -92.1269 268° West 436 502 22,000  Level Kansas City Center
Tue 10:27:54 AM 39.6986 -92.3153 267° West 436 502 22,000  Level Kansas City Center
Tue 10:28:57 AM 39.6928 -92.4711 267° West 436 502 22,000  Level Kansas City Center
Tue 10:29:57 AM 39.6869 -92.6278 267° West 436 502 22,000  Level Kansas City Center
Tue 10:31:01 AM 39.6806 -92.7844 267° West 436 502 22,000  Level Kansas City Center
Tue 10:32:02 AM 39.6742 -92.9392 267° West 435 501 22,000  Level Kansas City Center
Tue 10:33:05 AM 39.6672 -93.0944 267° West 435 501 22,000 -432 Level Kansas City Center
Tue 10:34:07 AM 39.6572 -93.2814 266° West 432 497 21,100 -1,728 Descending Kansas City Center
Tue 10:35:10 AM 39.6511 -93.4389 267° West 438 504 18,400 -2,585 Descending Kansas City Center
Tue 10:36:10 AM 39.6458 -93.5844 267° West 418 481 15,800 -2,419 Descending Kansas City Center
Tue 10:37:14 AM 39.6375 -93.7453 266° West 392 451 13,400 -1,935 Descending Kansas City Center
Tue 10:38:14 AM 39.6264 -93.8653 263° West 385 443 11,800 -1,328 Descending Kansas City Center
Tue 10:39:16 AM 39.5900 -93.9972 250° West 387 445 10,700 -857 Descending Kansas City Center
Tue 10:40:20 AM 39.5519 -94.1492 252° West 371 427 10,000 -484 Descending Kansas City Center
Tue 10:41:20 AM 39.5294 -94.2558 255° West 305 351 9,700 -1,210 Descending Kansas City Center
Tue 10:42:24 AM 39.5217 -94.3600 265° West 274 315 7,500 -1,872 Descending Kansas City Center
Tue 10:43:25 AM 39.5128 -94.4481 263° West 270 311 5,800 -1,440 Descending Kansas City Center
Tue 10:44:29 AM 39.5000 -94.5436 260° West 270 311 4,500 -1,296 Descending Kansas City Center
Tue 10:45:30 AM 39.4631 -94.6436 244° Southwest 265 305 3,100 -836 Descending Kansas City Center
Tue 10:46:31 AM 39.3975 -94.6742 200° South 250 288 2,800 -480 Descending Kansas City Center
Tue 10:47:35 AM 39.3444 -94.6903 193° South 189 217 2,100 -816 Descending Kansas City Center
Tue 10:48:36 AM 39.3081 -94.7011 193° South 137 158 1,100 -984 Descending Kansas City Center

Login

Don't have an account? Register now (free) for customized features, flight alerts, and more!